Station Historical Data
Daily Summary for February 2, 2017 Units:  English    Metric   Both
« Previous Day
Next Day »
Daily Weekly Monthly Yearly Custom
  High: Low: Average:
Temperature: 50.9 °F 41.6 °F 47 °F
Dew Point: 48.6 °F 30.6 °F 43.5 °F
Humidity: 94 % 46 % 89 %
Wind Speed: 17.0 mph 0.0 mph 5 mph
Wind Gust: 28.0 mph - -
Wind:- - SSE
Pressure: 30.09 in 29.99 in -
Precipitation: 0.00 in    
Historical Graphs
 
 
Tabular Data for February 2, 2017
Time Temperature Dew Point Pressure Wind Wind Speed Wind Gust Humidity Rainfall Rate (Hourly) solar
00:03 50.4 °F 33.9 °F 29.99 in SSE 6.0 mph 12.0 mph 53 % 0.00 in 0.00 W/m2
00:08 50.4 °F 33.5 °F 29.99 in SSE 5.0 mph 8.0 mph 52 % 0.00 in 0.00 W/m2
00:13 50.4 °F 33.0 °F 29.99 in SE 9.0 mph 11.0 mph 51 % 0.00 in 0.00 W/m2
00:18 50.3 °F 32.4 °F 30.00 in South 9.0 mph 11.0 mph 50 % 0.00 in 0.00 W/m2
00:23 50.3 °F 32.4 °F 30.00 in SSE 7.0 mph 19.0 mph 50 % 0.00 in 0.00 W/m2
00:28 50.3 °F 31.4 °F 30.01 in South 7.0 mph 19.0 mph 48 % 0.00 in 0.00 W/m2
00:33 50.4 °F 31.0 °F 30.01 in South 15.0 mph 15.0 mph 47 % 0.00 in 0.00 W/m2
00:38 50.6 °F 30.6 °F 30.01 in South 6.0 mph 13.0 mph 46 % 0.00 in 0.00 W/m2
00:43 50.7 °F 31.2 °F 30.01 in South 10.0 mph 17.0 mph 47 % 0.00 in 0.00 W/m2
00:48 50.8 °F 30.8 °F 30.01 in South 7.0 mph 10.0 mph 46 % 0.00 in 0.00 W/m2
00:54 50.9 °F 31.9 °F 30.01 in SW 9.0 mph 15.0 mph 48 % 0.00 in 0.00 W/m2
00:59 50.8 °F 31.8 °F 30.01 in Calm   9.0 mph 48 % 0.00 in 0.00 W/m2
01:04 50.8 °F 32.3 °F 30.00 in South 5.0 mph 11.0 mph 49 % 0.00 in 0.00 W/m2
01:09 50.6 °F 32.7 °F 30.00 in SW 10.0 mph 12.0 mph 50 % 0.00 in 0.00 W/m2
01:14 50.5 °F 33.1 °F 29.99 in SSW 5.0 mph 10.0 mph 51 % 0.00 in 0.00 W/m2
01:19 50.3 °F 33.8 °F 29.99 in South 8.0 mph 9.0 mph 53 % 0.00 in 0.00 W/m2
01:24 50.2 °F 34.2 °F 29.99 in South 5.0 mph 12.0 mph 54 % 0.00 in 0.00 W/m2
01:29 50.0 °F 34.5 °F 29.99 in South 6.0 mph 9.0 mph 55 % 0.00 in 0.00 W/m2
01:34 49.8 °F 34.8 °F 29.99 in Calm   10.0 mph 56 % 0.00 in 0.00 W/m2
01:39 49.5 °F 34.9 °F 30.00 in Calm   10.0 mph 57 % 0.00 in 0.00 W/m2
01:44 49.3 °F 35.2 °F 30.00 in SSW 10.0 mph 15.0 mph 58 % 0.00 in 0.00 W/m2
01:49 49.1 °F 35.0 °F 30.01 in Calm   12.0 mph 58 % 0.00 in 0.00 W/m2
01:54 48.9 °F 35.2 °F 30.01 in SSW 3.0 mph 10.0 mph 59 % 0.00 in 0.00 W/m2
01:59 48.7 °F 35.5 °F 30.01 in SSE 5.0 mph 12.0 mph 60 % 0.00 in 0.00 W/m2
02:06 48.5 °F 35.3 °F 30.01 in South 10.0 mph 12.0 mph 60 % 0.00 in 0.00 W/m2
02:11 48.3 °F 35.5 °F 30.01 in SSE 7.0 mph 10.0 mph 61 % 0.00 in 0.00 W/m2
02:16 48.1 °F 35.3 °F 30.01 in South 12.0 mph 12.0 mph 61 % 0.00 in 0.00 W/m2
02:21 48.0 °F 35.6 °F 30.01 in SE 9.0 mph 13.0 mph 62 % 0.00 in 0.00 W/m2
02:26 47.8 °F 35.0 °F 30.02 in SSE 14.0 mph 18.0 mph 61 % 0.00 in 0.00 W/m2
02:31 47.8 °F 34.6 °F 30.02 in SE 15.0 mph 15.0 mph 60 % 0.00 in 0.00 W/m2
02:44 47.8 °F 35.8 °F 30.02 in South 6.0 mph 23.0 mph 63 % 0.00 in 0.00 W/m2
02:49 47.7 °F 36.9 °F 30.02 in SSE 15.0 mph 28.0 mph 66 % 0.00 in 0.00 W/m2
02:54 47.4 °F 37.8 °F 30.02 in SSW 12.0 mph 21.0 mph 69 % 0.00 in 0.00 W/m2
02:59 46.9 °F 38.4 °F 30.02 in SSE 8.0 mph 19.0 mph 72 % 0.00 in 0.00 W/m2
03:04 46.4 °F 38.2 °F 30.02 in South 10.0 mph 20.0 mph 73 % 0.00 in 0.00 W/m2
03:09 45.9 °F 38.4 °F 30.03 in South 17.0 mph 21.0 mph 75 % 0.00 in 0.00 W/m2
03:14 45.6 °F 38.8 °F 30.03 in SE 14.0 mph 14.0 mph 77 % 0.00 in 0.00 W/m2
03:19 45.2 °F 38.8 °F 30.02 in SE 12.0 mph 21.0 mph 78 % 0.00 in 0.00 W/m2
03:24 44.8 °F 39.0 °F 30.02 in SE 14.0 mph 21.0 mph 80 % 0.00 in 0.00 W/m2
03:29 44.5 °F 39.0 °F 30.01 in SSE 9.0 mph 28.0 mph 81 % 0.00 in 0.00 W/m2
03:34 44.2 °F 39.4 °F 30.01 in SSE 10.0 mph 20.0 mph 83 % 0.13 in 0.00 W/m2
03:39 43.9 °F 39.7 °F 30.01 in SSE 11.0 mph 16.0 mph 85 % 0.13 in 0.00 W/m2
03:44 43.6 °F 39.7 °F 30.01 in SSE 6.0 mph 17.0 mph 86 % 0.12 in 0.00 W/m2
03:49 43.3 °F 39.7 °F 30.01 in SE 6.0 mph 13.0 mph 87 % 0.08 in 0.00 W/m2
03:54 43.1 °F 39.8 °F 30.01 in SE 12.0 mph 13.0 mph 88 % 0.08 in 0.00 W/m2
03:59 43.0 °F 40.0 °F 30.01 in SE 11.0 mph 14.0 mph 89 % 0.12 in 0.00 W/m2
04:04 42.9 °F 39.9 °F 30.00 in SE 4.0 mph 17.0 mph 89 % 0.07 in 0.00 W/m2
04:09 42.8 °F 40.1 °F 29.99 in SE 9.0 mph 14.0 mph 90 % 0.07 in 0.00 W/m2
04:14 42.7 °F 40.0 °F 29.99 in Calm   16.0 mph 90 % 0.06 in 0.00 W/m2
04:19 42.5 °F 39.8 °F 30.00 in SE 6.0 mph 13.0 mph 90 % 0.04 in 0.00 W/m2
04:24 42.4 °F 40.0 °F 30.00 in SE 12.0 mph 16.0 mph 91 % 0.00 in 0.00 W/m2
04:29 42.3 °F 39.9 °F 30.00 in SE 2.0 mph 12.0 mph 91 % 0.00 in 0.00 W/m2
04:34 42.2 °F 39.8 °F 30.00 in ESE 2.0 mph 11.0 mph 91 % 0.00 in 0.00 W/m2
04:39 42.2 °F 39.8 °F 30.00 in SE 11.0 mph 14.0 mph 91 % 0.00 in 0.00 W/m2
04:44 42.1 °F 39.7 °F 30.00 in ESE 2.0 mph 11.0 mph 91 % 0.00 in 0.00 W/m2
04:49 42.0 °F 39.6 °F 30.00 in ESE 1.0 mph 14.0 mph 91 % 0.00 in 0.00 W/m2
04:54 41.9 °F 39.8 °F 30.00 in ESE 7.0 mph 11.0 mph 92 % 0.00 in 0.00 W/m2
04:59 41.9 °F 39.8 °F 29.99 in ESE 2.0 mph 14.0 mph 92 % 0.00 in 0.00 W/m2
05:04 41.9 °F 39.8 °F 29.99 in ESE 4.0 mph 13.0 mph 92 % 0.00 in 0.00 W/m2
05:09 41.9 °F 39.8 °F 29.99 in Calm   13.0 mph 92 % 0.00 in 0.00 W/m2
05:14 41.8 °F 39.7 °F 29.99 in SE 11.0 mph 14.0 mph 92 % 0.00 in 0.00 W/m2
05:19 41.8 °F 39.7 °F 29.99 in SE 1.0 mph 14.0 mph 92 % 0.00 in 0.00 W/m2
05:24 41.8 °F 39.7 °F 30.00 in ESE 7.0 mph 11.0 mph 92 % 0.00 in 0.00 W/m2
05:29 41.8 °F 39.7 °F 30.00 in ESE 1.0 mph 12.0 mph 92 % 0.00 in 0.00 W/m2
05:34 41.7 °F 39.8 °F 30.00 in ESE 5.0 mph 12.0 mph 93 % 0.00 in 0.00 W/m2
05:39 41.7 °F 39.8 °F 30.00 in Calm     93 % 0.00 in 0.00 W/m2
05:44 41.7 °F 39.8 °F 30.01 in Calm     93 % 0.00 in 0.00 W/m2
05:49 41.6 °F 39.7 °F 30.01 in Calm     93 % 0.00 in 0.00 W/m2
05:54 41.7 °F 39.8 °F 30.02 in Calm     93 % 0.00 in 0.00 W/m2
05:59 41.7 °F 39.8 °F 30.03 in Calm     93 % 0.00 in 0.00 W/m2
06:04 41.8 °F 39.9 °F 30.03 in Calm     93 % 0.00 in 0.00 W/m2
06:09 41.7 °F 39.8 °F 30.03 in Calm     93 % 0.00 in 0.00 W/m2
06:14 41.7 °F 39.8 °F 30.03 in Calm     93 % 0.00 in 0.00 W/m2
06:19 41.6 °F 39.7 °F 30.03 in Calm     93 % 0.00 in 0.00 W/m2
06:24 41.6 °F 39.7 °F 30.03 in Calm     93 % 0.00 in 0.00 W/m2
06:29 41.6 °F 39.7 °F 30.03 in Calm     93 % 0.18 in 0.00 W/m2
06:34 41.6 °F 39.7 °F 30.03 in Calm     93 % 0.09 in 0.00 W/m2
06:40 41.6 °F 39.7 °F 30.04 in Calm     93 % 0.09 in 0.00 W/m2
06:45 41.7 °F 39.8 °F 30.04 in Calm     93 % 0.07 in 0.00 W/m2
06:50 41.7 °F 39.8 °F 30.04 in Calm     93 % 0.07 in 0.00 W/m2
06:55 41.7 °F 39.8 °F 30.04 in Calm     93 % 0.06 in 0.00 W/m2
07:00 41.7 °F 39.8 °F 30.04 in Calm     93 % 0.21 in 0.00 W/m2
07:05 41.8 °F 39.9 °F 30.03 in Calm     93 % 0.09 in 0.00 W/m2
07:10 41.8 °F 39.9 °F 30.03 in Calm     93 % 0.08 in 0.00 W/m2
07:15 41.8 °F 39.9 °F 30.03 in Calm     93 % 0.07 in 0.00 W/m2
07:20 41.8 °F 40.2 °F 30.03 in Calm     94 % 0.04 in 0.00 W/m2
07:25 41.8 °F 40.2 °F 30.04 in Calm     94 % 0.00 in 0.00 W/m2
07:30 41.9 °F 40.3 °F 30.05 in Calm     94 % 0.00 in 5.00 W/m2
07:35 41.9 °F 40.3 °F 30.04 in Calm     94 % 0.00 in 11.00 W/m2
07:40 42.0 °F 40.4 °F 30.04 in Calm     94 % 0.00 in 19.00 W/m2
07:45 42.0 °F 40.4 °F 30.04 in Calm     94 % 0.00 in 16.00 W/m2
07:50 42.0 °F 40.4 °F 30.04 in Calm     94 % 0.00 in 16.00 W/m2
07:55 42.1 °F 40.5 °F 30.04 in Calm     94 % 0.00 in 14.00 W/m2
08:00 42.1 °F 40.5 °F 30.05 in Calm     94 % 0.00 in 18.00 W/m2
08:05 42.2 °F 40.6 °F 30.05 in Calm     94 % 0.00 in 33.00 W/m2
08:10 42.3 °F 40.7 °F 30.05 in Calm   8.0 mph 94 % 0.00 in 53.00 W/m2
08:15 42.4 °F 40.8 °F 30.05 in SE 6.0 mph 7.0 mph 94 % 0.00 in 113.00 W/m2
08:20 42.5 °F 40.9 °F 30.05 in SE 1.0 mph 5.0 mph 94 % 0.00 in 32.00 W/m2
08:25 42.7 °F 41.1 °F 30.05 in Calm   5.0 mph 94 % 0.00 in 39.00 W/m2
08:30 42.9 °F 41.3 °F 30.06 in Calm   5.0 mph 94 % 0.00 in 56.00 W/m2
08:35 43.0 °F 41.4 °F 30.06 in Calm     94 % 0.00 in 39.00 W/m2
08:40 43.1 °F 41.5 °F 30.06 in Calm     94 % 0.00 in 33.00 W/m2
08:45 43.2 °F 41.6 °F 30.06 in Calm   6.0 mph 94 % 0.00 in 53.00 W/m2
08:50 43.3 °F 41.7 °F 30.07 in SE 5.0 mph 7.0 mph 94 % 0.00 in 63.00 W/m2
08:55 43.5 °F 41.9 °F 30.06 in ESE 2.0 mph 7.0 mph 94 % 0.00 in 72.00 W/m2
09:00 43.6 °F 42.0 °F 30.06 in SE 6.0 mph 6.0 mph 94 % 0.00 in 116.00 W/m2
09:05 43.6 °F 42.0 °F 30.06 in Calm   11.0 mph 94 % 0.00 in 139.00 W/m2
09:10 43.7 °F 42.1 °F 30.06 in Calm   9.0 mph 94 % 0.00 in 163.00 W/m2
09:15 43.8 °F 42.2 °F 30.06 in SE 8.0 mph 9.0 mph 94 % 0.00 in 139.00 W/m2
09:20 44.0 °F 42.4 °F 30.06 in SE 1.0 mph 8.0 mph 94 % 0.00 in 135.00 W/m2
09:25 44.1 °F 42.5 °F 30.07 in SE 4.0 mph 10.0 mph 94 % 0.00 in 130.00 W/m2
09:30 44.2 °F 42.6 °F 30.07 in Calm   9.0 mph 94 % 0.00 in 90.00 W/m2
09:35 44.3 °F 42.7 °F 30.07 in SE 2.0 mph 8.0 mph 94 % 0.00 in 77.00 W/m2
09:40 44.4 °F 42.8 °F 30.07 in SE 2.0 mph 9.0 mph 94 % 0.00 in 111.00 W/m2
09:45 44.5 °F 42.9 °F 30.08 in SE 7.0 mph 7.0 mph 94 % 0.00 in 91.00 W/m2
09:50 44.6 °F 43.0 °F 30.08 in SSE 4.0 mph 8.0 mph 94 % 0.00 in 54.00 W/m2
09:55 44.7 °F 43.1 °F 30.09 in Calm   4.0 mph 94 % 0.00 in 98.00 W/m2
10:00 44.7 °F 43.1 °F 30.09 in Calm   5.0 mph 94 % 0.00 in 76.00 W/m2
10:05 44.8 °F 43.2 °F 30.09 in Calm   6.0 mph 94 % 0.00 in 79.00 W/m2
10:10 44.8 °F 43.2 °F 30.08 in Calm   8.0 mph 94 % 0.00 in 113.00 W/m2
10:15 44.9 °F 43.3 °F 30.09 in SE 4.0 mph 8.0 mph 94 % 0.06 in 163.00 W/m2
10:20 44.9 °F 43.3 °F 30.09 in SE 6.0 mph 8.0 mph 94 % 0.06 in 213.00 W/m2
10:25 45.0 °F 43.4 °F 30.09 in SE 5.0 mph 9.0 mph 94 % 0.05 in 179.00 W/m2
10:30 45.0 °F 43.4 °F 30.09 in SE 2.0 mph 8.0 mph 94 % 0.04 in 144.00 W/m2
10:35 45.1 °F 43.5 °F 30.09 in SE 6.0 mph 8.0 mph 94 % 0.00 in 169.00 W/m2
10:40 45.2 °F 43.6 °F 30.09 in Calm   6.0 mph 94 % 0.00 in 142.00 W/m2
10:45 45.3 °F 43.7 °F 30.09 in ESE 5.0 mph 9.0 mph 94 % 0.00 in 104.00 W/m2
10:50 45.3 °F 43.7 °F 30.09 in SE 4.0 mph 14.0 mph 94 % 0.00 in 153.00 W/m2
10:55 45.4 °F 43.8 °F 30.09 in Calm   11.0 mph 94 % 0.00 in 149.00 W/m2
11:00 45.5 °F 43.9 °F 30.09 in SE 2.0 mph 11.0 mph 94 % 0.00 in 230.00 W/m2
11:05 45.7 °F 44.1 °F 30.09 in Calm   12.0 mph 94 % 0.00 in 388.00 W/m2
11:10 46.0 °F 44.4 °F 30.09 in SE 8.0 mph 10.0 mph 94 % 0.00 in 197.00 W/m2
11:15 46.4 °F 44.8 °F 30.09 in Calm   10.0 mph 94 % 0.00 in 118.00 W/m2
11:20 46.7 °F 45.1 °F 30.09 in South 1.0 mph 8.0 mph 94 % 0.00 in 102.00 W/m2
11:25 46.8 °F 45.2 °F 30.09 in SSE 1.0 mph 11.0 mph 94 % 0.00 in 109.00 W/m2
11:30 47.0 °F 45.4 °F 30.09 in Calm   7.0 mph 94 % 0.00 in 134.00 W/m2
11:35 47.0 °F 45.4 °F 30.09 in Calm   13.0 mph 94 % 0.00 in 142.00 W/m2
11:40 47.1 °F 45.5 °F 30.09 in SSE 4.0 mph 7.0 mph 94 % 0.06 in 123.00 W/m2
11:45 47.2 °F 45.6 °F 30.09 in Calm   8.0 mph 94 % 0.06 in 162.00 W/m2
11:50 47.3 °F 45.7 °F 30.09 in SSE 4.0 mph 8.0 mph 94 % 0.05 in 213.00 W/m2
11:55 47.4 °F 45.8 °F 30.09 in South 6.0 mph 8.0 mph 94 % 0.04 in 148.00 W/m2
12:00 47.6 °F 46.0 °F 30.09 in Calm   15.0 mph 94 % 0.04 in 178.00 W/m2
12:05 47.7 °F 46.1 °F 30.08 in SSE 11.0 mph 12.0 mph 94 % 0.04 in 163.00 W/m2
12:10 47.9 °F 46.3 °F 30.08 in South 10.0 mph 14.0 mph 94 % 0.04 in 135.00 W/m2
12:15 47.9 °F 46.3 °F 30.08 in South 8.0 mph 11.0 mph 94 % 0.00 in 120.00 W/m2
12:20 47.9 °F 46.3 °F 30.08 in SSE 13.0 mph 16.0 mph 94 % 0.00 in 158.00 W/m2
12:25 47.9 °F 46.3 °F 30.08 in SSE 8.0 mph 13.0 mph 94 % 0.00 in 105.00 W/m2
12:30 47.9 °F 46.3 °F 30.08 in SSE 8.0 mph 13.0 mph 94 % 0.00 in 90.00 W/m2
12:35 47.9 °F 46.3 °F 30.08 in SSE 4.0 mph 12.0 mph 94 % 0.00 in 102.00 W/m2
12:40 48.0 °F 46.4 °F 30.07 in South 4.0 mph 12.0 mph 94 % 0.00 in 72.00 W/m2
12:45 48.0 °F 46.4 °F 30.07 in South 10.0 mph 13.0 mph 94 % 0.00 in 104.00 W/m2
12:50 47.9 °F 46.3 °F 30.07 in South 5.0 mph 11.0 mph 94 % 0.00 in 69.00 W/m2
12:55 48.0 °F 46.4 °F 30.07 in SSE 7.0 mph 13.0 mph 94 % 0.00 in 62.00 W/m2
13:00 48.0 °F 46.4 °F 30.07 in Calm   13.0 mph 94 % 0.00 in 76.00 W/m2
13:05 48.0 °F 46.4 °F 30.07 in SSE 9.0 mph 14.0 mph 94 % 0.00 in 67.00 W/m2
13:10 48.0 °F 46.4 °F 30.07 in South 12.0 mph 13.0 mph 94 % 0.00 in 76.00 W/m2
13:15 48.0 °F 46.4 °F 30.06 in South 5.0 mph 14.0 mph 94 % 0.00 in 86.00 W/m2
13:20 48.1 °F 46.5 °F 30.06 in SE 13.0 mph 17.0 mph 94 % 0.00 in 77.00 W/m2
13:25 48.1 °F 46.5 °F 30.06 in SE 5.0 mph 15.0 mph 94 % 0.00 in 74.00 W/m2
13:30 48.1 °F 46.5 °F 30.06 in South 7.0 mph 21.0 mph 94 % 0.00 in 62.00 W/m2
13:35 48.2 °F 46.6 °F 30.06 in SSE 8.0 mph 20.0 mph 94 % 0.00 in 83.00 W/m2
13:40 48.2 °F 46.6 °F 30.06 in SSE 7.0 mph 15.0 mph 94 % 0.00 in 67.00 W/m2
13:45 48.3 °F 46.7 °F 30.06 in SSE 7.0 mph 16.0 mph 94 % 0.00 in 90.00 W/m2
13:50 48.3 °F 46.7 °F 30.06 in SSE 13.0 mph 17.0 mph 94 % 0.00 in 111.00 W/m2
13:55 48.4 °F 46.8 °F 30.06 in South 12.0 mph 17.0 mph 94 % 0.00 in 121.00 W/m2
14:00 48.5 °F 46.9 °F 30.05 in South 11.0 mph 14.0 mph 94 % 0.00 in 107.00 W/m2
14:05 48.6 °F 47.0 °F 30.05 in South 5.0 mph 15.0 mph 94 % 0.00 in 135.00 W/m2
14:10 48.7 °F 47.0 °F 30.05 in SE 4.0 mph 14.0 mph 94 % 0.00 in 246.00 W/m2
14:15 48.8 °F 47.2 °F 30.05 in SE 12.0 mph 15.0 mph 94 % 0.00 in 243.00 W/m2
14:20 49.0 °F 47.3 °F 30.05 in SE 9.0 mph 17.0 mph 94 % 0.00 in 197.00 W/m2
14:25 49.2 °F 47.5 °F 30.04 in SSE 9.0 mph 18.0 mph 94 % 0.00 in 236.00 W/m2
14:30 49.4 °F 47.8 °F 30.04 in SSE 12.0 mph 15.0 mph 94 % 0.00 in 225.00 W/m2
14:35 49.5 °F 47.8 °F 30.04 in SE 11.0 mph 17.0 mph 94 % 0.00 in 178.00 W/m2
14:40 49.6 °F 48.0 °F 30.04 in SE 8.0 mph 15.0 mph 94 % 0.00 in 104.00 W/m2
14:45 49.6 °F 48.0 °F 30.05 in SE 11.0 mph 11.0 mph 94 % 0.00 in 67.00 W/m2
14:46 49.6 °F 48.0 °F 30.05 in SE 9.0 mph 11.0 mph 94 % 0.00 in 67.00 W/m2
14:51 49.6 °F 48.0 °F 30.04 in SE 7.0 mph 13.0 mph 94 % 0.00 in 83.00 W/m2
14:56 49.7 °F 48.0 °F 30.04 in SSE 10.0 mph 13.0 mph 94 % 0.00 in 69.00 W/m2
15:01 49.7 °F 48.0 °F 30.04 in SE 6.0 mph 14.0 mph 94 % 0.00 in 70.00 W/m2
15:06 49.7 °F 48.0 °F 30.04 in SSE 14.0 mph 15.0 mph 94 % 0.00 in 72.00 W/m2
15:11 49.7 °F 48.0 °F 30.04 in SE 2.0 mph 14.0 mph 94 % 0.00 in 105.00 W/m2
15:16 49.7 °F 48.0 °F 30.04 in SE 9.0 mph 16.0 mph 94 % 0.00 in 69.00 W/m2
15:21 49.8 °F 48.2 °F 30.04 in SSE 1.0 mph 12.0 mph 94 % 0.00 in 107.00 W/m2
15:26 49.9 °F 48.2 °F 30.04 in South 11.0 mph 13.0 mph 94 % 0.00 in 148.00 W/m2
15:31 49.9 °F 48.2 °F 30.04 in SE 5.0 mph 13.0 mph 94 % 0.00 in 158.00 W/m2
15:36 50.0 °F 48.3 °F 30.04 in SSE 7.0 mph 19.0 mph 94 % 0.00 in 156.00 W/m2
15:41 50.1 °F 48.4 °F 30.04 in South 10.0 mph 18.0 mph 94 % 0.00 in 156.00 W/m2
15:46 50.2 °F 48.5 °F 30.04 in SSE 11.0 mph 13.0 mph 94 % 0.00 in 146.00 W/m2
15:51 50.2 °F 48.5 °F 30.04 in SSE 10.0 mph 16.0 mph 94 % 0.00 in 134.00 W/m2
15:56 50.3 °F 48.6 °F 30.04 in SE 4.0 mph 17.0 mph 94 % 0.00 in 118.00 W/m2
16:01 50.3 °F 48.6 °F 30.04 in SSE 6.0 mph 14.0 mph 94 % 0.00 in 104.00 W/m2
16:06 50.3 °F 48.6 °F 30.04 in SSE 9.0 mph 13.0 mph 94 % 0.00 in 97.00 W/m2
16:11 50.3 °F 48.6 °F 30.04 in SSE 7.0 mph 12.0 mph 94 % 0.00 in 95.00 W/m2
16:16 50.3 °F 48.6 °F 30.04 in SSE 5.0 mph 12.0 mph 94 % 0.00 in 97.00 W/m2
16:21 50.3 °F 48.6 °F 30.03 in SSE 2.0 mph 13.0 mph 94 % 0.00 in 93.00 W/m2
16:26 50.3 °F 48.6 °F 30.03 in SE 2.0 mph 10.0 mph 94 % 0.00 in 81.00 W/m2
16:31 50.3 °F 48.6 °F 30.03 in Calm   11.0 mph 94 % 0.00 in 69.00 W/m2
16:36 50.3 °F 48.6 °F 30.04 in SSE 2.0 mph 9.0 mph 94 % 0.00 in 62.00 W/m2
16:41 50.2 °F 48.5 °F 30.03 in SE 5.0 mph 11.0 mph 94 % 0.00 in 53.00 W/m2
16:46 50.1 °F 48.4 °F 30.04 in SSE 8.0 mph 10.0 mph 94 % 0.00 in 42.00 W/m2
16:51 50.1 °F 48.4 °F 30.04 in SE 2.0 mph 8.0 mph 94 % 0.00 in 30.00 W/m2
16:56 50.0 °F 48.3 °F 30.04 in SSE 4.0 mph 12.0 mph 94 % 0.00 in 21.00 W/m2
17:01 49.9 °F 48.2 °F 30.04 in SSE 7.0 mph 9.0 mph 94 % 0.00 in 16.00 W/m2
17:06 49.9 °F 48.2 °F 30.04 in Calm   9.0 mph 94 % 0.00 in 14.00 W/m2
17:11 49.8 °F 48.2 °F 30.04 in Calm     94 % 0.00 in 11.00 W/m2
17:16 49.7 °F 48.0 °F 30.04 in Calm     94 % 0.00 in 7.00 W/m2
17:21 49.7 °F 48.0 °F 30.04 in Calm     94 % 0.00 in 5.00 W/m2
17:26 49.6 °F 48.0 °F 30.04 in Calm     94 % 0.00 in 0.00 W/m2
17:31 49.6 °F 48.0 °F 30.04 in Calm     94 % 0.00 in 0.00 W/m2
17:36 49.5 °F 47.8 °F 30.04 in Calm     94 % 0.00 in 0.00 W/m2
17:41 49.5 °F 47.8 °F 30.04 in Calm     94 % 0.00 in 0.00 W/m2
17:46 49.4 °F 47.8 °F 30.05 in Calm     94 % 0.00 in 0.00 W/m2
17:51 49.4 °F 47.8 °F 30.05 in Calm     94 % 0.00 in 0.00 W/m2
17:56 49.4 °F 47.8 °F 30.05 in Calm     94 % 0.00 in 0.00 W/m2
18:01 49.3 °F 47.7 °F 30.05 in Calm     94 % 0.00 in 0.00 W/m2
18:06 49.2 °F 47.5 °F 30.05 in Calm     94 % 0.00 in 0.00 W/m2
18:11 49.2 °F 47.5 °F 30.05 in Calm     94 % 0.00 in 0.00 W/m2
18:16 49.1 °F 47.5 °F 30.05 in Calm     94 % 0.00 in 0.00 W/m2
18:21 49.1 °F 47.5 °F 30.05 in Calm     94 % 0.00 in 0.00 W/m2
18:26 49.0 °F 47.3 °F 30.05 in Calm     94 % 0.00 in 0.00 W/m2
18:31 49.0 °F 47.3 °F 30.05 in Calm     94 % 0.00 in 0.00 W/m2
18:36 49.0 °F 47.3 °F 30.05 in Calm     94 % 0.00 in 0.00 W/m2
18:41 48.9 °F 47.2 °F 30.04 in Calm     94 % 0.00 in 0.00 W/m2
18:46 48.9 °F 47.2 °F 30.05 in Calm     94 % 0.00 in 0.00 W/m2
18:51 48.8 °F 47.2 °F 30.05 in Calm     94 % 0.00 in 0.00 W/m2
18:56 48.8 °F 47.2 °F 30.05 in Calm     94 % 0.00 in 0.00 W/m2
19:01 48.8 °F 47.2 °F 30.05 in Calm     94 % 0.21 in 0.00 W/m2
19:06 48.8 °F 47.2 °F 30.05 in Calm     94 % 0.67 in 0.00 W/m2
19:11 48.9 °F 47.2 °F 30.04 in Calm     94 % 0.34 in 0.00 W/m2
19:16 48.9 °F 47.2 °F 30.05 in Calm     94 % 0.18 in 0.00 W/m2
19:21 48.9 °F 47.2 °F 30.04 in Calm     94 % 0.07 in 0.00 W/m2
19:26 48.9 °F 47.2 °F 30.04 in Calm     94 % 0.04 in 0.00 W/m2
19:31 48.9 °F 47.2 °F 30.04 in Calm     94 % 0.04 in 0.00 W/m2
19:36 48.9 °F 47.2 °F 30.04 in Calm     94 % 0.04 in 0.00 W/m2
19:41 48.9 °F 47.2 °F 30.04 in Calm     94 % 0.04 in 0.00 W/m2
19:46 48.9 °F 47.2 °F 30.03 in Calm     94 % 0.00 in 0.00 W/m2
19:51 48.9 °F 47.2 °F 30.04 in Calm     94 % 0.00 in 0.00 W/m2
19:56 48.9 °F 47.2 °F 30.04 in Calm     94 % 0.00 in 0.00 W/m2
20:01 48.9 °F 47.2 °F 30.04 in Calm     94 % 0.14 in 0.00 W/m2
20:06 48.8 °F 47.2 °F 30.04 in Calm     94 % 0.06 in 0.00 W/m2
20:11 48.8 °F 47.2 °F 30.04 in Calm     94 % 0.04 in 0.00 W/m2
20:16 48.8 °F 47.2 °F 30.03 in SSE 4.0 mph 8.0 mph 94 % 0.00 in 0.00 W/m2
20:21 48.8 °F 47.2 °F 30.03 in Calm   10.0 mph 94 % 0.00 in 0.00 W/m2
20:26 48.8 °F 47.2 °F 30.03 in Calm   10.0 mph 94 % 0.00 in 0.00 W/m2
20:31 48.7 °F 47.0 °F 30.03 in SE 1.0 mph 10.0 mph 94 % 0.00 in 0.00 W/m2
20:36 48.7 °F 47.0 °F 30.03 in SSE 7.0 mph 11.0 mph 94 % 0.00 in 0.00 W/m2
20:41 48.7 °F 47.0 °F 30.04 in SE 8.0 mph 13.0 mph 94 % 0.00 in 0.00 W/m2
20:46 48.6 °F 47.0 °F 30.03 in SSE 8.0 mph 15.0 mph 94 % 0.34 in 0.00 W/m2
20:51 48.6 °F 47.0 °F 30.03 in SE 10.0 mph 17.0 mph 94 % 0.19 in 0.00 W/m2
20:56 48.6 °F 47.0 °F 30.03 in South 8.0 mph 21.0 mph 94 % 1.36 in 0.00 W/m2
21:01 48.6 °F 47.0 °F 30.04 in South 2.0 mph 13.0 mph 94 % 0.35 in 0.00 W/m2
21:06 48.6 °F 47.0 °F 30.03 in SE 5.0 mph 13.0 mph 94 % 0.10 in 0.00 W/m2
21:11 48.6 °F 47.0 °F 30.03 in SE 9.0 mph 16.0 mph 94 % 0.10 in 0.00 W/m2
21:16 48.6 °F 47.0 °F 30.03 in SE 7.0 mph 17.0 mph 94 % 0.06 in 0.00 W/m2
21:21 48.5 °F 46.9 °F 30.03 in South 11.0 mph 13.0 mph 94 % 0.04 in 0.00 W/m2
21:26 48.5 °F 46.9 °F 30.04 in SE 5.0 mph 14.0 mph 94 % 0.00 in 0.00 W/m2
21:31 48.5 °F 46.9 °F 30.04 in South 13.0 mph 15.0 mph 94 % 0.00 in 0.00 W/m2
21:36 48.5 °F 46.9 °F 30.03 in ESE 9.0 mph 16.0 mph 94 % 0.00 in 0.00 W/m2
21:41 48.5 °F 46.9 °F 30.03 in SSE 10.0 mph 18.0 mph 94 % 0.00 in 0.00 W/m2
21:46 48.5 °F 46.9 °F 30.03 in SSE 15.0 mph 21.0 mph 94 % 0.00 in 0.00 W/m2
21:51 48.5 °F 46.9 °F 30.03 in SE 12.0 mph 15.0 mph 94 % 0.00 in 0.00 W/m2
21:56 48.5 °F 46.9 °F 30.03 in SSE 5.0 mph 14.0 mph 94 % 0.00 in 0.00 W/m2
22:01 48.5 °F 46.9 °F 30.03 in SSE 4.0 mph 14.0 mph 94 % 0.00 in 0.00 W/m2
22:06 48.5 °F 46.9 °F 30.03 in SSE 9.0 mph 17.0 mph 94 % 0.00 in 0.00 W/m2
22:11 48.5 °F 46.9 °F 30.03 in SE 6.0 mph 20.0 mph 94 % 0.00 in 0.00 W/m2
22:16 48.5 °F 46.9 °F 30.03 in SSE 9.0 mph 17.0 mph 94 % 0.00 in 0.00 W/m2
22:21 48.5 °F 46.9 °F 30.02 in SSE 8.0 mph 20.0 mph 94 % 0.00 in 0.00 W/m2
22:26 48.6 °F 47.0 °F 30.02 in SSE 4.0 mph 19.0 mph 94 % 0.00 in 0.00 W/m2
22:31 48.6 °F 47.0 °F 30.02 in SSE 7.0 mph 21.0 mph 94 % 0.00 in 0.00 W/m2
22:36 48.6 °F 47.0 °F 30.02 in SE 14.0 mph 21.0 mph 94 % 0.00 in 0.00 W/m2
22:41 48.6 °F 47.0 °F 30.02 in SSE 8.0 mph 22.0 mph 94 % 0.00 in 0.00 W/m2
22:46 48.7 °F 47.0 °F 30.02 in SSE 7.0 mph 19.0 mph 94 % 0.00 in 0.00 W/m2
22:51 48.7 °F 47.0 °F 30.02 in SSE 14.0 mph 20.0 mph 94 % 0.00 in 0.00 W/m2
22:56 48.8 °F 47.2 °F 30.02 in SE 12.0 mph 18.0 mph 94 % 0.00 in 0.00 W/m2
23:01 48.8 °F 47.2 °F 30.02 in ESE 16.0 mph 19.0 mph 94 % 0.00 in 0.00 W/m2
23:06 48.8 °F 47.2 °F 30.01 in SE 9.0 mph 22.0 mph 94 % 0.00 in 0.00 W/m2
23:11 48.8 °F 47.2 °F 30.02 in South 13.0 mph 24.0 mph 94 % 0.00 in 0.00 W/m2
23:16 48.8 °F 47.2 °F 30.01 in SE 9.0 mph 20.0 mph 94 % 0.00 in 0.00 W/m2
23:21 48.8 °F 47.2 °F 30.01 in SE 10.0 mph 16.0 mph 94 % 0.00 in 0.00 W/m2
23:26 48.8 °F 47.2 °F 30.01 in SE 17.0 mph 23.0 mph 94 % 0.00 in 0.00 W/m2
23:31 48.7 °F 47.0 °F 30.01 in SSE 13.0 mph 23.0 mph 94 % 0.00 in 0.00 W/m2
23:36 48.7 °F 47.0 °F 30.01 in South 7.0 mph 21.0 mph 94 % 0.00 in 0.00 W/m2
23:41 48.7 °F 47.0 °F 30.01 in SSE 9.0 mph 17.0 mph 94 % 0.00 in 0.00 W/m2
23:46 48.7 °F 47.0 °F 30.01 in SE 8.0 mph 17.0 mph 94 % 0.00 in 0.00 W/m2
23:51 48.7 °F 47.0 °F 30.01 in SSE 10.0 mph 21.0 mph 94 % 0.00 in 0.00 W/m2
23:56 48.7 °F 47.0 °F 30.01 in SE 12.0 mph 12.0 mph 94 % 0.00 in 0.00 W/m2
Juneau County Weather
Compliments of Weather Underground - 4.5 mb
 WU-history PHP script courtesy of   Juneau County Weather.
powered by Cumulus v1.9.3 (1059)
Ambient Weather VWS v14.00
Top Contact Website Map Copyright © 2007 - 2018 Foresthillweather.com Never base important decisions on this or any weather information obtained from the Internet